Valentia Observatory, Ireland
Current Conditions -  °F | °C
As of 2:30 PM on Thursday 18 Dec 2014 (Local Time) from EIKY Reporting Station
Light Rain Light Rain  
Wind Chill: 55°   Ceiling: 800
Heat Index: 55°   Visibility: 2mi
Dew Point: 54°   Wind: 30mph
Humidity: 94%   Direction: 260°W
Pressure: 29.68"   Gusts: 41mph
Location:  51.93°N, 10.25°W
Report Text: EIKY 181430Z 26026G36KT 3300 -RADZ BKN008 OVC014 13/12 Q1005
Loading
Personal Weather Stations






























Interactive Weather Map New forecast layout! Learn more

10-Day Weather Forecast

Advertisements
Track Severe Weather on mobile